sensor_id;sensor_type;location;lat;lon;timestamp;pressure;altitude;pressure_sealevel;temperature;humidity
2549;BME280;1284;53.520;10.248;2024-03-23T00:54:23;100067.84;;;11.02;83.65
2549;BME280;1284;53.520;10.248;2024-03-23T00:56:49;100074.72;;;10.96;84.50
2549;BME280;1284;53.520;10.248;2024-03-23T00:59:14;100078.59;;;10.99;84.02
2549;BME280;1284;53.520;10.248;2024-03-23T01:01:39;100072.81;;;10.97;84.35
2549;BME280;1284;53.520;10.248;2024-03-23T01:04:05;100058.66;;;11.07;83.76
2549;BME280;1284;53.520;10.248;2024-03-23T01:06:30;100050.97;;;11.09;83.62
2549;BME280;1284;53.520;10.248;2024-03-23T01:08:56;100048.69;;;11.11;84.03
2549;BME280;1284;53.520;10.248;2024-03-23T01:11:21;100047.94;;;11.14;83.67
2549;BME280;1284;53.520;10.248;2024-03-23T01:13:47;100050.59;;;11.10;83.99
2549;BME280;1284;53.520;10.248;2024-03-23T01:16:12;100051.69;;;11.02;84.18
2549;BME280;1284;53.520;10.248;2024-03-23T01:18:38;100054.78;;;11.04;84.10
2549;BME280;1284;53.520;10.248;2024-03-23T01:21:03;100054.31;;;10.95;84.14
2549;BME280;1284;53.520;10.248;2024-03-23T01:23:29;100048.56;;;10.97;84.09
2549;BME280;1284;53.520;10.248;2024-03-23T01:25:54;100048.59;;;11.00;84.31
2549;BME280;1284;53.520;10.248;2024-03-23T01:28:21;100037.84;;;11.04;84.15
2549;BME280;1284;53.520;10.248;2024-03-23T01:30:46;100026.66;;;11.02;83.69
2549;BME280;1284;53.520;10.248;2024-03-23T01:33:12;100028.22;;;11.03;83.98
2549;BME280;1284;53.520;10.248;2024-03-23T01:35:38;100012.44;;;11.05;83.31
2549;BME280;1284;53.520;10.248;2024-03-23T01:38:03;100025.00;;;10.90;83.33
2549;BME280;1284;53.520;10.248;2024-03-23T01:40:29;100017.28;;;10.85;84.13
2549;BME280;1284;53.520;10.248;2024-03-23T01:45:23;100014.59;;;10.85;84.49
2549;BME280;1284;53.520;10.248;2024-03-23T01:47:50;100016.53;;;10.88;84.83
2549;BME280;1284;53.520;10.248;2024-03-23T01:50:16;100006.56;;;10.92;84.08
2549;BME280;1284;53.520;10.248;2024-03-23T01:52:41;100002.34;;;10.95;84.07
2549;BME280;1284;53.520;10.248;2024-03-23T01:55:07;100004.22;;;10.87;84.54
2549;BME280;1284;53.520;10.248;2024-03-23T01:57:33;99999.22;;;10.85;84.86
2549;BME280;1284;53.520;10.248;2024-03-23T01:59:59;99989.97;;;10.86;85.04
2549;BME280;1284;53.520;10.248;2024-03-23T02:02:26;99981.09;;;10.82;84.34
2549;BME280;1284;53.520;10.248;2024-03-23T02:04:52;99984.53;;;10.79;84.57
2549;BME280;1284;53.520;10.248;2024-03-23T02:07:17;99976.69;;;10.60;85.53
2549;BME280;1284;53.520;10.248;2024-03-23T02:09:43;99977.00;;;10.55;85.79
2549;BME280;1284;53.520;10.248;2024-03-23T02:12:09;99977.72;;;10.49;85.80
2549;BME280;1284;53.520;10.248;2024-03-23T02:14:35;99972.78;;;10.54;86.12
2549;BME280;1284;53.520;10.248;2024-03-23T02:17:00;99971.31;;;10.60;85.80
2549;BME280;1284;53.520;10.248;2024-03-23T02:19:25;99970.50;;;10.56;85.70
2549;BME280;1284;53.520;10.248;2024-03-23T02:21:51;99958.19;;;10.59;85.89
2549;BME280;1284;53.520;10.248;2024-03-23T02:24:16;99952.06;;;10.62;85.83
2549;BME280;1284;53.520;10.248;2024-03-23T02:26:42;99961.66;;;10.59;85.53
2549;BME280;1284;53.520;10.248;2024-03-23T02:29:07;99953.94;;;10.54;85.50
2549;BME280;1284;53.520;10.248;2024-03-23T02:31:35;99955.81;;;10.50;86.07
2549;BME280;1284;53.520;10.248;2024-03-23T02:34:01;99949.22;;;10.44;86.37
2549;BME280;1284;53.520;10.248;2024-03-23T02:36:26;99955.00;;;10.46;85.99
2549;BME280;1284;53.520;10.248;2024-03-23T02:38:52;99946.94;;;10.46;86.15
2549;BME280;1284;53.520;10.248;2024-03-23T02:41:17;99943.53;;;10.53;85.54
2549;BME280;1284;53.520;10.248;2024-03-23T02:43:51;99947.38;;;10.55;86.09
2549;BME280;1284;53.520;10.248;2024-03-23T02:46:16;99945.84;;;10.54;86.15
2549;BME280;1284;53.520;10.248;2024-03-23T02:48:42;99942.34;;;10.47;86.24
2549;BME280;1284;53.520;10.248;2024-03-23T02:51:07;99949.59;;;10.43;86.20
2549;BME280;1284;53.520;10.248;2024-03-23T02:53:34;99940.78;;;10.46;86.09
2549;BME280;1284;53.520;10.248;2024-03-23T02:55:59;99924.66;;;10.49;85.87
2549;BME280;1284;53.520;10.248;2024-03-23T02:58:25;99927.34;;;10.49;86.40
2549;BME280;1284;53.520;10.248;2024-03-23T03:00:50;99925.81;;;10.48;86.51
2549;BME280;1284;53.520;10.248;2024-03-23T03:03:16;99930.75;;;10.43;86.10
2549;BME280;1284;53.520;10.248;2024-03-23T03:05:41;99926.91;;;10.44;86.00
2549;BME280;1284;53.520;10.248;2024-03-23T03:08:07;99918.06;;;10.43;85.90
2549;BME280;1284;53.520;10.248;2024-03-23T03:10:32;99931.47;;;10.36;86.03
2549;BME280;1284;53.520;10.248;2024-03-23T03:13:00;99929.53;;;10.37;86.37
2549;BME280;1284;53.520;10.248;2024-03-23T03:15:26;99914.59;;;10.39;86.35
2549;BME280;1284;53.520;10.248;2024-03-23T03:17:51;99916.06;;;10.33;86.25
2549;BME280;1284;53.520;10.248;2024-03-23T03:20:17;99914.50;;;10.32;86.79
2549;BME280;1284;53.520;10.248;2024-03-23T03:22:43;99907.50;;;10.24;86.63
2549;BME280;1284;53.520;10.248;2024-03-23T03:25:09;99897.16;;;10.26;86.75
2549;BME280;1284;53.520;10.248;2024-03-23T03:27:34;99913.69;;;10.28;86.79
2549;BME280;1284;53.520;10.248;2024-03-23T03:30:00;99907.56;;;10.28;86.32
2549;BME280;1284;53.520;10.248;2024-03-23T03:32:32;99896.41;;;10.29;86.45
2549;BME280;1284;53.520;10.248;2024-03-23T03:34:57;99890.66;;;10.31;86.65
2549;BME280;1284;53.520;10.248;2024-03-23T03:37:23;99892.56;;;10.30;86.47
2549;BME280;1284;53.520;10.248;2024-03-23T03:39:48;99894.13;;;10.31;86.47
2549;BME280;1284;53.520;10.248;2024-03-23T03:42:14;99886.44;;;10.30;85.98
2549;BME280;1284;53.520;10.248;2024-03-23T03:44:40;99878.22;;;10.16;86.58
2549;BME280;1284;53.520;10.248;2024-03-23T03:47:06;99872.84;;;10.16;86.58
2549;BME280;1284;53.520;10.248;2024-03-23T03:49:31;99876.75;;;10.22;87.00
2549;BME280;1284;53.520;10.248;2024-03-23T03:51:57;99869.44;;;10.22;86.59
2549;BME280;1284;53.520;10.248;2024-03-23T03:54:22;99869.38;;;10.15;86.66
2549;BME280;1284;53.520;10.248;2024-03-23T03:56:48;99872.13;;;10.22;86.32
2549;BME280;1284;53.520;10.248;2024-03-23T03:59:15;99869.41;;;10.19;86.30
2549;BME280;1284;53.520;10.248;2024-03-23T04:01:40;99866.34;;;10.20;86.52
2549;BME280;1284;53.520;10.248;2024-03-23T04:04:06;99859.28;;;10.09;86.89
2549;BME280;1284;53.520;10.248;2024-03-23T04:06:32;99854.00;;;10.12;86.27
2549;BME280;1284;53.520;10.248;2024-03-23T04:08:58;99854.00;;;10.16;86.59
2549;BME280;1284;53.520;10.248;2024-03-23T04:11:24;99865.22;;;10.21;86.25
2549;BME280;1284;53.520;10.248;2024-03-23T04:13:49;99859.03;;;10.21;86.69
2549;BME280;1284;53.520;10.248;2024-03-23T04:16:28;99850.19;;;10.20;85.96
2549;BME280;1284;53.520;10.248;2024-03-23T04:18:54;99854.41;;;10.18;86.10
2549;BME280;1284;53.520;10.248;2024-03-23T04:21:20;99860.97;;;10.20;86.18
2549;BME280;1284;53.520;10.248;2024-03-23T04:23:45;99855.56;;;10.20;86.08
2549;BME280;1284;53.520;10.248;2024-03-23T04:26:11;99843.66;;;10.18;86.30
2549;BME280;1284;53.520;10.248;2024-03-23T04:28:36;99827.97;;;10.27;85.55
2549;BME280;1284;53.520;10.248;2024-03-23T04:31:05;99821.81;;;10.26;85.05
2549;BME280;1284;53.520;10.248;2024-03-23T04:33:30;99818.72;;;10.24;85.47
2549;BME280;1284;53.520;10.248;2024-03-23T04:35:56;99837.53;;;10.21;85.41
2549;BME280;1284;53.520;10.248;2024-03-23T04:38:22;99846.44;;;10.32;84.35
2549;BME280;1284;53.520;10.248;2024-03-23T04:40:55;99849.09;;;10.25;84.54
2549;BME280;1284;53.520;10.248;2024-03-23T04:43:21;99845.84;;;10.09;85.58
2549;BME280;1284;53.520;10.248;2024-03-23T04:45:46;99839.31;;;10.06;86.04
2549;BME280;1284;53.520;10.248;2024-03-23T04:48:12;99842.69;;;9.99;86.87
2549;BME280;1284;53.520;10.248;2024-03-23T04:50:38;99856.47;;;9.91;87.19
2549;BME280;1284;53.520;10.248;2024-03-23T04:53:06;99867.16;;;9.87;86.96
2549;BME280;1284;53.520;10.248;2024-03-23T04:55:32;99857.53;;;9.83;87.40
2549;BME280;1284;53.520;10.248;2024-03-23T04:57:57;99846.78;;;9.83;87.71
2549;BME280;1284;53.520;10.248;2024-03-23T05:00:23;99847.91;;;9.82;88.01
2549;BME280;1284;53.520;10.248;2024-03-23T05:02:49;99841.78;;;9.85;87.98
2549;BME280;1284;53.520;10.248;2024-03-23T05:05:14;99842.22;;;9.90;87.63
2549;BME280;1284;53.520;10.248;2024-03-23T05:07:42;99829.94;;;9.93;87.66
2549;BME280;1284;53.520;10.248;2024-03-23T05:10:09;99828.47;;;9.99;87.35
2549;BME280;1284;53.520;10.248;2024-03-23T05:12:39;99814.69;;;10.04;87.06
2549;BME280;1284;53.520;10.248;2024-03-23T05:15:05;99833.13;;;10.02;86.91
2549;BME280;1284;53.520;10.248;2024-03-23T05:17:32;99843.09;;;10.01;86.46
2549;BME280;1284;53.520;10.248;2024-03-23T05:20:04;99853.41;;;9.96;86.92
2549;BME280;1284;53.520;10.248;2024-03-23T05:22:29;99830.75;;;9.97;87.22
2549;BME280;1284;53.520;10.248;2024-03-23T05:24:56;99829.63;;;9.98;86.97
2549;BME280;1284;53.520;10.248;2024-03-23T05:27:21;99833.44;;;9.97;87.12
2549;BME280;1284;53.520;10.248;2024-03-23T05:29:47;99824.97;;;9.95;87.28
2549;BME280;1284;53.520;10.248;2024-03-23T05:32:12;99828.44;;;9.95;87.11
2549;BME280;1284;53.520;10.248;2024-03-23T05:34:38;99827.34;;;10.00;87.20
2549;BME280;1284;53.520;10.248;2024-03-23T05:37:03;99821.94;;;10.00;86.89
2549;BME280;1284;53.520;10.248;2024-03-23T05:39:29;99820.00;;;9.97;86.65
2549;BME280;1284;53.520;10.248;2024-03-23T05:41:55;99819.25;;;9.96;87.05
2549;BME280;1284;53.520;10.248;2024-03-23T05:44:20;99809.63;;;9.99;87.04
2549;BME280;1284;53.520;10.248;2024-03-23T05:46:46;99821.16;;;9.99;86.73
2549;BME280;1284;53.520;10.248;2024-03-23T05:49:15;99815.75;;;9.96;87.37
2549;BME280;1284;53.520;10.248;2024-03-23T05:51:42;99802.00;;;10.04;86.68
2549;BME280;1284;53.520;10.248;2024-03-23T05:54:08;99791.59;;;9.99;86.84
2549;BME280;1284;53.520;10.248;2024-03-23T05:56:33;99788.94;;;10.07;86.67
2549;BME280;1284;53.520;10.248;2024-03-23T05:58:58;99788.25;;;10.10;86.33
2549;BME280;1284;53.520;10.248;2024-03-23T06:01:24;99793.97;;;10.08;86.38
2549;BME280;1284;53.520;10.248;2024-03-23T06:03:49;99783.16;;;10.04;87.15
2549;BME280;1284;53.520;10.248;2024-03-23T06:06:15;99784.41;;;10.11;86.58
2549;BME280;1284;53.520;10.248;2024-03-23T06:08:41;99791.75;;;10.17;86.20
2549;BME280;1284;53.520;10.248;2024-03-23T06:11:06;99792.13;;;10.16;86.75
2549;BME280;1284;53.520;10.248;2024-03-23T06:13:32;99801.38;;;10.18;86.13
2549;BME280;1284;53.520;10.248;2024-03-23T06:15:59;99795.16;;;10.11;86.42
2549;BME280;1284;53.520;10.248;2024-03-23T06:18:25;99792.56;;;10.21;85.66
2549;BME280;1284;53.520;10.248;2024-03-23T06:20:51;99794.16;;;10.26;85.04
2549;BME280;1284;53.520;10.248;2024-03-23T06:23:17;99782.19;;;10.20;85.54
2549;BME280;1284;53.520;10.248;2024-03-23T06:25:45;99779.50;;;10.23;86.12
2549;BME280;1284;53.520;10.248;2024-03-23T06:28:11;99785.63;;;10.20;86.40
2549;BME280;1284;53.520;10.248;2024-03-23T06:30:36;99787.16;;;10.18;86.76
2549;BME280;1284;53.520;10.248;2024-03-23T06:33:01;99783.72;;;10.21;86.93
2549;BME280;1284;53.520;10.248;2024-03-23T06:35:27;99783.72;;;10.21;86.50
2549;BME280;1284;53.520;10.248;2024-03-23T06:37:53;99790.31;;;10.30;87.06
2549;BME280;1284;53.520;10.248;2024-03-23T06:40:18;99785.34;;;10.32;86.24
2549;BME280;1284;53.520;10.248;2024-03-23T06:42:44;99788.09;;;10.39;86.44
2549;BME280;1284;53.520;10.248;2024-03-23T06:45:09;99786.13;;;10.33;86.59
2549;BME280;1284;53.520;10.248;2024-03-23T06:47:35;99772.69;;;10.40;86.16
2549;BME280;1284;53.520;10.248;2024-03-23T06:50:02;99771.56;;;10.44;86.07
2549;BME280;1284;53.520;10.248;2024-03-23T06:52:28;99781.56;;;10.44;85.81
2549;BME280;1284;53.520;10.248;2024-03-23T06:54:54;99777.81;;;10.59;85.99
2549;BME280;1284;53.520;10.248;2024-03-23T06:57:19;99779.78;;;10.69;85.71
2549;BME280;1284;53.520;10.248;2024-03-23T06:59:44;99775.59;;;10.71;84.78
2549;BME280;1284;53.520;10.248;2024-03-23T07:02:10;99781.06;;;10.85;84.63
2549;BME280;1284;53.520;10.248;2024-03-23T07:04:36;99780.63;;;10.80;84.40
2549;BME280;1284;53.520;10.248;2024-03-23T07:07:02;99778.38;;;10.96;83.62
2549;BME280;1284;53.520;10.248;2024-03-23T07:09:30;99779.56;;;11.06;83.38
2549;BME280;1284;53.520;10.248;2024-03-23T07:11:56;99782.34;;;11.27;82.98
2549;BME280;1284;53.520;10.248;2024-03-23T07:14:23;99784.66;;;11.25;82.16
2549;BME280;1284;53.520;10.248;2024-03-23T07:16:49;99778.47;;;11.14;82.34
2549;BME280;1284;53.520;10.248;2024-03-23T07:19:15;99768.53;;;11.32;81.76
2549;BME280;1284;53.520;10.248;2024-03-23T07:21:44;99773.94;;;11.46;81.57
2549;BME280;1284;53.520;10.248;2024-03-23T07:24:10;99777.78;;;11.48;81.10
2549;BME280;1284;53.520;10.248;2024-03-23T07:26:36;99778.56;;;11.49;81.51
2549;BME280;1284;53.520;10.248;2024-03-23T07:29:06;99775.47;;;11.40;80.16
2549;BME280;1284;53.520;10.248;2024-03-23T07:31:32;99782.06;;;11.56;80.33
2549;BME280;1284;53.520;10.248;2024-03-23T07:33:57;99782.81;;;11.57;80.06
2549;BME280;1284;53.520;10.248;2024-03-23T07:36:23;99778.25;;;11.71;79.07
2549;BME280;1284;53.520;10.248;2024-03-23T07:38:48;99774.38;;;11.65;78.89
2549;BME280;1284;53.520;10.248;2024-03-23T07:41:15;99771.69;;;11.65;78.65
2549;BME280;1284;53.520;10.248;2024-03-23T07:43:45;99769.41;;;11.71;77.81
2549;BME280;1284;53.520;10.248;2024-03-23T07:46:11;99765.53;;;11.68;78.57
2549;BME280;1284;53.520;10.248;2024-03-23T07:48:38;99773.97;;;11.60;78.71
2549;BME280;1284;53.520;10.248;2024-03-23T07:51:06;99770.47;;;11.59;78.33
2549;BME280;1284;53.520;10.248;2024-03-23T07:53:32;99767.03;;;11.55;77.55
2549;BME280;1284;53.520;10.248;2024-03-23T07:56:02;99764.38;;;11.66;76.98
2549;BME280;1284;53.520;10.248;2024-03-23T07:58:28;99762.84;;;11.79;76.16
2549;BME280;1284;53.520;10.248;2024-03-23T08:00:55;99764.41;;;12.15;75.21
2549;BME280;1284;53.520;10.248;2024-03-23T08:03:20;99773.97;;;12.58;74.42
2549;BME280;1284;53.520;10.248;2024-03-23T08:05:46;99775.41;;;12.95;72.95
2549;BME280;1284;53.520;10.248;2024-03-23T08:08:12;99770.75;;;13.02;70.05
2549;BME280;1284;53.520;10.248;2024-03-23T08:10:51;99763.78;;;13.05;69.86
2549;BME280;1284;53.520;10.248;2024-03-23T08:13:17;99759.84;;;13.27;70.53
2549;BME280;1284;53.520;10.248;2024-03-23T08:15:43;99764.47;;;13.33;69.99
2549;BME280;1284;53.520;10.248;2024-03-23T08:18:12;99764.31;;;13.58;69.38
2549;BME280;1284;53.520;10.248;2024-03-23T08:20:39;99758.47;;;13.59;67.55
2549;BME280;1284;53.520;10.248;2024-03-23T08:23:07;99751.19;;;13.53;66.47
2549;BME280;1284;53.520;10.248;2024-03-23T08:25:33;99759.66;;;13.55;67.45
2549;BME280;1284;53.520;10.248;2024-03-23T08:28:00;99762.59;;;13.78;67.12
2549;BME280;1284;53.520;10.248;2024-03-23T08:30:26;99756.16;;;14.09;66.02
2549;BME280;1284;53.520;10.248;2024-03-23T08:32:51;99753.81;;;14.15;63.66
2549;BME280;1284;53.520;10.248;2024-03-23T08:35:17;99750.94;;;14.32;62.64
2549;BME280;1284;53.520;10.248;2024-03-23T08:37:43;99748.56;;;14.41;61.40
2549;BME280;1284;53.520;10.248;2024-03-23T08:40:08;99745.06;;;14.41;60.74
2549;BME280;1284;53.520;10.248;2024-03-23T08:42:34;99752.09;;;14.72;61.21
2549;BME280;1284;53.520;10.248;2024-03-23T08:45:00;99749.50;;;14.95;60.65
2549;BME280;1284;53.520;10.248;2024-03-23T08:47:25;99750.00;;;15.17;60.28
2549;BME280;1284;53.520;10.248;2024-03-23T08:49:51;99752.72;;;15.47;58.55
2549;BME280;1284;53.520;10.248;2024-03-23T08:52:17;99745.09;;;15.65;57.73
2549;BME280;1284;53.520;10.248;2024-03-23T08:54:42;99742.16;;;16.02;57.58
2549;BME280;1284;53.520;10.248;2024-03-23T08:57:08;99734.25;;;16.11;55.80
2549;BME280;1284;53.520;10.248;2024-03-23T08:59:34;99731.88;;;15.90;55.92
2549;BME280;1284;53.520;10.248;2024-03-23T09:02:00;99734.31;;;15.58;56.19
2549;BME280;1284;53.520;10.248;2024-03-23T09:04:25;99731.53;;;15.35;57.17
2549;BME280;1284;53.520;10.248;2024-03-23T09:06:51;99739.56;;;15.46;57.17
2549;BME280;1284;53.520;10.248;2024-03-23T09:09:17;99736.50;;;15.10;55.93
2549;BME280;1284;53.520;10.248;2024-03-23T09:11:43;99730.41;;;14.72;57.39
2549;BME280;1284;53.520;10.248;2024-03-23T09:14:08;99727.06;;;14.58;57.48
2549;BME280;1284;53.520;10.248;2024-03-23T09:16:34;99725.84;;;14.66;58.96
2549;BME280;1284;53.520;10.248;2024-03-23T09:19:00;99728.00;;;14.44;59.09
2549;BME280;1284;53.520;10.248;2024-03-23T09:21:25;99722.03;;;14.60;58.64
2549;BME280;1284;53.520;10.248;2024-03-23T09:23:51;99732.66;;;14.77;57.81
2549;BME280;1284;53.520;10.248;2024-03-23T09:26:16;99724.50;;;14.81;56.40
2549;BME280;1284;53.520;10.248;2024-03-23T09:28:42;99723.78;;;14.43;55.58
2549;BME280;1284;53.520;10.248;2024-03-23T09:31:08;99729.34;;;14.25;56.88
2549;BME280;1284;53.520;10.248;2024-03-23T09:33:35;99731.66;;;14.64;55.54
2549;BME280;1284;53.520;10.248;2024-03-23T09:36:04;99715.91;;;15.16;54.62
2549;BME280;1284;53.520;10.248;2024-03-23T09:38:30;99721.00;;;15.41;53.80
2549;BME280;1284;53.520;10.248;2024-03-23T09:40:57;99710.81;;;15.98;52.75
2549;BME280;1284;53.520;10.248;2024-03-23T09:43:22;99722.38;;;16.45;51.07
2549;BME280;1284;53.520;10.248;2024-03-23T09:45:49;99717.19;;;16.93;49.30
2549;BME280;1284;53.520;10.248;2024-03-23T09:48:15;99710.09;;;17.15;50.17
2549;BME280;1284;53.520;10.248;2024-03-23T09:50:45;99711.09;;;16.46;48.30
2549;BME280;1284;53.520;10.248;2024-03-23T09:53:12;99699.44;;;16.03;48.45
2549;BME280;1284;53.520;10.248;2024-03-23T09:55:39;99698.78;;;15.49;50.10
2549;BME280;1284;53.520;10.248;2024-03-23T09:58:05;99700.41;;;15.16;50.40
2549;BME280;1284;53.520;10.248;2024-03-23T10:00:34;99707.31;;;14.91;52.03
2549;BME280;1284;53.520;10.248;2024-03-23T10:03:01;99700.47;;;14.49;52.85
2549;BME280;1284;53.520;10.248;2024-03-23T10:05:30;99696.88;;;14.22;52.64
2549;BME280;1284;53.520;10.248;2024-03-23T10:10:40;99695.47;;;14.48;53.98
2549;BME280;1284;53.520;10.248;2024-03-23T10:13:05;99691.16;;;14.54;52.58
2549;BME280;1284;53.520;10.248;2024-03-23T10:15:34;99693.75;;;14.23;51.69
2549;BME280;1284;53.520;10.248;2024-03-23T10:20:42;99690.69;;;13.81;51.60
2549;BME280;1284;53.520;10.248;2024-03-23T10:23:16;99685.47;;;14.00;52.91
2549;BME280;1284;53.520;10.248;2024-03-23T10:25:41;99689.09;;;14.27;53.63
2549;BME280;1284;53.520;10.248;2024-03-23T10:28:07;99683.50;;;14.04;52.54
2549;BME280;1284;53.520;10.248;2024-03-23T10:30:32;99689.56;;;14.15;52.54
2549;BME280;1284;53.520;10.248;2024-03-23T10:33:08;99678.41;;;14.51;52.05
2549;BME280;1284;53.520;10.248;2024-03-23T10:35:34;99679.84;;;14.59;51.54
2549;BME280;1284;53.520;10.248;2024-03-23T10:38:01;99678.31;;;14.88;52.05
2549;BME280;1284;53.520;10.248;2024-03-23T10:40:29;99670.69;;;14.79;49.93
2549;BME280;1284;53.520;10.248;2024-03-23T10:42:57;99676.06;;;14.83;48.71
2549;BME280;1284;53.520;10.248;2024-03-23T10:45:24;99666.59;;;14.98;49.06
2549;BME280;1284;53.520;10.248;2024-03-23T10:47:49;99664.94;;;15.04;49.61
2549;BME280;1284;53.520;10.248;2024-03-23T10:50:15;99659.31;;;15.18;49.24
2549;BME280;1284;53.520;10.248;2024-03-23T10:52:48;99670.47;;;15.23;48.58
2549;BME280;1284;53.520;10.248;2024-03-23T10:55:16;99662.69;;;14.99;50.04
2549;BME280;1284;53.520;10.248;2024-03-23T10:57:51;99650.19;;;15.31;49.46
2549;BME280;1284;53.520;10.248;2024-03-23T11:00:18;99644.88;;;15.51;49.70
2549;BME280;1284;53.520;10.248;2024-03-23T11:02:44;99650.78;;;15.46;48.33
2549;BME280;1284;53.520;10.248;2024-03-23T11:05:29;99654.25;;;15.47;49.34
2549;BME280;1284;53.520;10.248;2024-03-23T11:07:55;99659.03;;;15.35;49.54
2549;BME280;1284;53.520;10.248;2024-03-23T11:10:29;99660.97;;;15.35;50.61
2549;BME280;1284;53.520;10.248;2024-03-23T11:12:56;99656.69;;;15.11;52.73
2549;BME280;1284;53.520;10.248;2024-03-23T11:15:23;99660.06;;;14.92;53.59
2549;BME280;1284;53.520;10.248;2024-03-23T11:18:05;99658.44;;;14.68;55.31
2549;BME280;1284;53.520;10.248;2024-03-23T11:20:37;99676.97;;;14.39;57.39
2549;BME280;1284;53.520;10.248;2024-03-23T11:23:02;99662.03;;;14.24;61.77
2549;BME280;1284;53.520;10.248;2024-03-23T11:25:28;99653.34;;;14.02;64.47
2549;BME280;1284;53.520;10.248;2024-03-23T11:27:56;99644.06;;;13.63;66.34
2549;BME280;1284;53.520;10.248;2024-03-23T11:30:26;99645.56;;;13.67;68.66
2549;BME280;1284;53.520;10.248;2024-03-23T11:32:54;99650.13;;;13.77;67.55
2549;BME280;1284;53.520;10.248;2024-03-23T11:35:34;99644.63;;;13.84;65.40
2549;BME280;1284;53.520;10.248;2024-03-23T11:38:04;99640.22;;;14.01;65.05
2549;BME280;1284;53.520;10.248;2024-03-23T11:40:29;99639.09;;;14.35;63.54
2549;BME280;1284;53.520;10.248;2024-03-23T11:42:59;99627.19;;;14.60;60.52
2549;BME280;1284;53.520;10.248;2024-03-23T11:45:25;99625.91;;;14.68;55.44
2549;BME280;1284;53.520;10.248;2024-03-23T11:48:15;99624.88;;;15.15;54.30
2549;BME280;1284;53.520;10.248;2024-03-23T11:50:45;99618.88;;;15.54;53.72
2549;BME280;1284;53.520;10.248;2024-03-23T11:53:21;99620.81;;;15.96;53.15
2549;BME280;1284;53.520;10.248;2024-03-23T11:55:58;99626.53;;;16.01;51.14
2549;BME280;1284;53.520;10.248;2024-03-23T11:58:25;99628.59;;;15.74;50.37
2549;BME280;1284;53.520;10.248;2024-03-23T12:03:20;99624.53;;;15.13;51.27
2549;BME280;1284;53.520;10.248;2024-03-23T12:05:48;99621.81;;;15.13;52.17
2549;BME280;1284;53.520;10.248;2024-03-23T12:08:20;99622.91;;;14.32;51.14
2549;BME280;1284;53.520;10.248;2024-03-23T12:10:49;99626.38;;;13.95;51.12
2549;BME280;1284;53.520;10.248;2024-03-23T12:13:16;99631.00;;;13.54;50.72
2549;BME280;1284;53.520;10.248;2024-03-23T12:15:43;99629.00;;;13.62;51.73
2549;BME280;1284;53.520;10.248;2024-03-23T12:18:09;99631.09;;;13.84;51.14
2549;BME280;1284;53.520;10.248;2024-03-23T12:20:36;99631.41;;;14.30;50.27
2549;BME280;1284;53.520;10.248;2024-03-23T12:23:10;99622.53;;;14.90;49.47
2549;BME280;1284;53.520;10.248;2024-03-23T12:25:39;99632.59;;;15.43;49.23
2549;BME280;1284;53.520;10.248;2024-03-23T12:28:05;99635.72;;;15.65;48.94
2549;BME280;1284;53.520;10.248;2024-03-23T12:30:35;99654.91;;;15.77;49.33
2549;BME280;1284;53.520;10.248;2024-03-23T12:33:01;99654.72;;;15.65;50.66
2549;BME280;1284;53.520;10.248;2024-03-23T12:35:27;99648.59;;;15.34;51.62
2549;BME280;1284;53.520;10.248;2024-03-23T12:37:52;99643.25;;;14.74;53.35
2549;BME280;1284;53.520;10.248;2024-03-23T12:40:18;99648.13;;;14.56;56.03
2549;BME280;1284;53.520;10.248;2024-03-23T12:42:43;99647.50;;;14.44;55.50
2549;BME280;1284;53.520;10.248;2024-03-23T12:45:09;99631.75;;;14.36;54.45
2549;BME280;1284;53.520;10.248;2024-03-23T12:47:34;99635.56;;;14.38;54.15
2549;BME280;1284;53.520;10.248;2024-03-23T12:50:00;99644.53;;;14.35;55.77
2549;BME280;1284;53.520;10.248;2024-03-23T12:52:25;99640.56;;;14.43;56.11
2549;BME280;1284;53.520;10.248;2024-03-23T12:54:56;99633.38;;;14.60;56.66
2549;BME280;1284;53.520;10.248;2024-03-23T12:57:25;99647.31;;;14.28;54.50
2549;BME280;1284;53.520;10.248;2024-03-23T12:59:52;99663.13;;;13.93;57.13
2549;BME280;1284;53.520;10.248;2024-03-23T13:02:21;99675.84;;;13.51;58.59
2549;BME280;1284;53.520;10.248;2024-03-23T13:04:49;99677.88;;;12.64;61.51
2549;BME280;1284;53.520;10.248;2024-03-23T13:07:15;99679.44;;;12.55;64.96
2549;BME280;1284;53.520;10.248;2024-03-23T13:09:41;99687.19;;;12.49;64.90
2549;BME280;1284;53.520;10.248;2024-03-23T13:12:07;99680.69;;;12.29;66.63
2549;BME280;1284;53.520;10.248;2024-03-23T13:14:33;99680.69;;;12.33;68.15
2549;BME280;1284;53.520;10.248;2024-03-23T13:16:58;99692.66;;;12.14;68.49
2549;BME280;1284;53.520;10.248;2024-03-23T13:19:24;99698.09;;;12.07;68.02
2549;BME280;1284;53.520;10.248;2024-03-23T13:21:55;99697.69;;;11.52;70.91
2549;BME280;1284;53.520;10.248;2024-03-23T13:24:24;99712.22;;;11.06;72.68
2549;BME280;1284;53.520;10.248;2024-03-23T13:26:54;99694.00;;;10.67;75.76
2549;BME280;1284;53.520;10.248;2024-03-23T13:29:20;99684.00;;;10.64;78.94
2549;BME280;1284;53.520;10.248;2024-03-23T13:31:46;99682.22;;;11.11;81.58
2549;BME280;1284;53.520;10.248;2024-03-23T13:34:15;99681.13;;;11.43;84.39
2549;BME280;1284;53.520;10.248;2024-03-23T13:36:41;99680.78;;;11.76;82.25
2549;BME280;1284;53.520;10.248;2024-03-23T13:39:07;99676.91;;;11.81;80.62
2549;BME280;1284;53.520;10.248;2024-03-23T13:41:40;99693.09;;;11.77;80.69
2549;BME280;1284;53.520;10.248;2024-03-23T13:44:06;99683.84;;;11.71;78.82
2549;BME280;1284;53.520;10.248;2024-03-23T13:46:33;99686.56;;;11.68;78.91
2549;BME280;1284;53.520;10.248;2024-03-23T13:48:58;99685.75;;;11.64;78.91
2549;BME280;1284;53.520;10.248;2024-03-23T13:51:24;99689.94;;;11.09;77.44
2549;BME280;1284;53.520;10.248;2024-03-23T13:53:56;99665.28;;;11.14;76.95
2549;BME280;1284;53.520;10.248;2024-03-23T13:56:22;99677.53;;;10.83;77.62
2549;BME280;1284;53.520;10.248;2024-03-23T13:58:48;99675.69;;;11.08;78.45
2549;BME280;1284;53.520;10.248;2024-03-23T14:01:17;99678.00;;;11.27;76.80
2549;BME280;1284;53.520;10.248;2024-03-23T14:03:43;99674.59;;;11.65;76.37
2549;BME280;1284;53.520;10.248;2024-03-23T14:06:09;99675.34;;;11.62;74.69
2549;BME280;1284;53.520;10.248;2024-03-23T14:08:36;99694.63;;;11.93;74.61
2549;BME280;1284;53.520;10.248;2024-03-23T14:11:07;99689.59;;;11.56;72.11